createdAt,value
2022-07-29T00:00:42.054Z,7.35
2022-07-29T00:03:10.307Z,3.58
2022-07-29T00:05:40.180Z,6.00
2022-07-29T00:08:12.410Z,4.40
2022-07-29T00:10:40.977Z,6.05
2022-07-29T00:13:08.881Z,6.40
2022-07-29T00:15:36.783Z,8.48
2022-07-29T00:18:05.193Z,7.75
2022-07-29T00:20:32.999Z,5.68
2022-07-29T00:23:00.793Z,6.28
2022-07-29T00:25:29.033Z,6.22
2022-07-29T00:27:56.809Z,5.53
2022-07-29T00:30:24.672Z,4.87
2022-07-29T00:32:53.147Z,7.40
2022-07-29T00:35:39.438Z,6.03
2022-07-29T00:38:07.779Z,4.90
2022-07-29T00:40:35.571Z,6.25
2022-07-29T00:43:03.558Z,6.97
2022-07-29T00:45:31.878Z,5.15
2022-07-29T00:47:59.861Z,7.25
2022-07-29T00:50:28.202Z,7.37
2022-07-29T00:52:56.853Z,5.20
2022-07-29T00:55:24.911Z,6.30
2022-07-29T00:57:54.404Z,7.53
2022-07-29T01:00:25.901Z,7.68
2022-07-29T01:02:53.947Z,6.82
2022-07-29T01:05:25.717Z,5.62
2022-07-29T01:08:15.361Z,7.90
2022-07-29T01:10:44.913Z,3.35
2022-07-29T01:13:15.786Z,6.40
2022-07-29T01:15:53.620Z,6.03
2022-07-29T01:18:33.173Z,5.55
2022-07-29T01:21:08.525Z,7.90
2022-07-29T01:23:57.459Z,6.65
2022-07-29T01:26:48.267Z,5.05
2022-07-29T01:29:28.986Z,6.32
2022-07-29T01:32:27.508Z,7.75
2022-07-29T01:35:20.263Z,5.47
2022-07-29T01:38:21.694Z,6.75
2022-07-29T01:41:17.577Z,7.18
2022-07-29T01:43:57.392Z,8.00
2022-07-29T01:46:37.103Z,9.23
2022-07-29T01:49:08.577Z,6.75
2022-07-29T01:52:01.341Z,4.80
2022-07-29T01:54:46.642Z,7.05
2022-07-29T01:57:18.795Z,6.25
2022-07-29T01:59:48.892Z,4.65
2022-07-29T02:02:17.989Z,3.53
2022-07-29T02:04:52.292Z,7.78
2022-07-29T02:07:24.415Z,5.62
2022-07-29T02:09:54.279Z,5.30
2022-07-29T02:12:23.558Z,3.73
2022-07-29T02:14:54.386Z,4.72
2022-07-29T02:17:35.016Z,4.00
2022-07-29T02:20:08.433Z,4.37
2022-07-29T02:22:39.624Z,5.45
2022-07-29T02:25:13.770Z,6.00
2022-07-29T02:27:44.051Z,6.78
2022-07-29T02:30:13.686Z,6.05
2022-07-29T02:32:43.047Z,5.00
2022-07-29T02:35:15.352Z,7.75
2022-07-29T02:37:46.278Z,8.82
2022-07-29T02:40:16.700Z,7.15
2022-07-29T02:42:46.065Z,3.25
2022-07-29T02:45:14.239Z,4.13
2022-07-29T02:47:47.916Z,6.35
2022-07-29T02:50:22.513Z,5.22
2022-07-29T02:53:04.571Z,5.07
2022-07-29T02:55:38.546Z,7.90
2022-07-29T02:58:31.650Z,8.07
2022-07-29T03:01:19.436Z,7.15
2022-07-29T03:03:51.910Z,5.78
2022-07-29T03:06:37.729Z,7.85
2022-07-29T03:09:13.042Z,6.95
2022-07-29T03:11:49.805Z,8.88
2022-07-29T03:14:21.130Z,5.03
2022-07-29T03:16:50.271Z,7.85
2022-07-29T03:19:19.421Z,5.22
2022-07-29T03:21:47.612Z,6.45
2022-07-29T03:24:36.405Z,6.80
2022-07-29T03:27:05.411Z,7.55
2022-07-29T03:29:34.602Z,8.88
2022-07-29T03:32:07.871Z,6.43
2022-07-29T03:34:38.560Z,9.43
2022-07-29T03:37:07.769Z,10.13
2022-07-29T03:39:41.136Z,8.00
2022-07-29T03:42:13.305Z,7.65
2022-07-29T03:44:44.799Z,7.05
2022-07-29T03:47:16.199Z,7.65
2022-07-29T03:49:46.102Z,6.20
2022-07-29T03:52:14.848Z,8.73
2022-07-29T03:54:42.902Z,5.43
2022-07-29T03:57:12.890Z,6.05
2022-07-29T03:59:42.221Z,6.50
2022-07-29T04:02:12.322Z,9.63
2022-07-29T04:04:40.655Z,5.60
2022-07-29T04:07:08.473Z,6.85
2022-07-29T04:09:36.432Z,6.65
2022-07-29T04:12:04.945Z,7.55
2022-07-29T04:14:34.132Z,8.10
2022-07-29T04:17:05.637Z,10.63
2022-07-29T04:19:34.122Z,9.27
2022-07-29T04:22:02.419Z,10.32
2022-07-29T04:24:30.508Z,6.72
2022-07-29T04:26:58.679Z,6.25
2022-07-29T04:29:26.533Z,8.75
2022-07-29T04:31:54.380Z,8.90
2022-07-29T04:34:22.642Z,8.63
2022-07-29T04:36:56.462Z,7.22
2022-07-29T04:39:25.353Z,6.18
2022-07-29T04:41:57.521Z,5.68
2022-07-29T04:44:28.966Z,8.35
2022-07-29T04:46:57.960Z,5.62
2022-07-29T04:49:26.134Z,3.20
2022-07-29T04:51:54.562Z,3.17
2022-07-29T04:54:22.643Z,4.40
2022-07-29T04:56:50.419Z,2.60
2022-07-29T04:59:18.628Z,5.75
2022-07-29T05:01:46.530Z,5.30
2022-07-29T05:04:14.630Z,6.05
2022-07-29T05:06:43.035Z,3.72
2022-07-29T05:09:10.962Z,3.45
2022-07-29T05:11:38.739Z,3.45
2022-07-29T05:14:06.890Z,3.87
2022-07-29T05:16:34.780Z,4.18
2022-07-29T05:19:02.672Z,3.60
2022-07-29T05:21:30.906Z,4.70
2022-07-29T05:23:58.841Z,5.80
2022-07-29T05:26:26.615Z,4.90
2022-07-29T05:28:55.721Z,4.07
2022-07-29T05:31:23.627Z,6.53
2022-07-29T05:33:51.511Z,5.40
2022-07-29T05:36:19.746Z,5.80
2022-07-29T05:38:47.702Z,4.37
2022-07-29T05:41:15.662Z,6.40
2022-07-29T05:43:43.789Z,4.12
2022-07-29T05:46:11.660Z,5.85
2022-07-29T05:48:40.304Z,6.57
2022-07-29T05:51:08.534Z,4.72
2022-07-29T05:53:36.564Z,4.75
2022-07-29T05:56:06.234Z,5.57
2022-07-29T05:58:35.085Z,5.80
2022-07-29T06:01:03.594Z,5.80
2022-07-29T06:03:31.764Z,6.68
2022-07-29T06:05:59.636Z,5.93
2022-07-29T06:08:27.620Z,6.32
2022-07-29T06:10:55.811Z,8.15
2022-07-29T06:13:23.580Z,4.90
2022-07-29T06:15:51.556Z,5.80
2022-07-29T06:18:19.758Z,4.87
2022-07-29T06:20:48.127Z,5.20
2022-07-29T06:23:15.988Z,5.10
2022-07-29T06:25:44.376Z,5.85
2022-07-29T06:28:12.459Z,6.80
2022-07-29T06:30:41.182Z,4.65
2022-07-29T06:33:09.616Z,6.95
2022-07-29T06:35:42.295Z,4.87
2022-07-29T06:38:30.406Z,5.70
2022-07-29T06:41:12.160Z,5.97
2022-07-29T06:43:50.229Z,8.50
2022-07-29T06:46:20.247Z,4.30
2022-07-29T06:48:49.456Z,4.20
2022-07-29T06:51:22.565Z,3.75
2022-07-29T06:53:59.046Z,7.65
2022-07-29T06:56:39.098Z,4.50
2022-07-29T06:59:13.423Z,9.07
2022-07-29T07:01:43.777Z,7.70
2022-07-29T07:04:13.565Z,5.28
2022-07-29T07:06:41.556Z,6.80
2022-07-29T07:09:09.333Z,5.35
2022-07-29T07:11:37.477Z,8.50
2022-07-29T07:14:05.393Z,5.60
2022-07-29T07:16:33.405Z,5.07
2022-07-29T07:19:02.096Z,5.43
2022-07-29T07:21:31.257Z,5.20
2022-07-29T07:24:00.863Z,4.95
2022-07-29T07:26:29.587Z,5.68
2022-07-29T07:28:58.166Z,6.85
2022-07-29T07:31:26.062Z,3.42
2022-07-29T07:33:54.731Z,5.70
2022-07-29T07:36:23.060Z,4.80
2022-07-29T07:38:51.480Z,8.18
2022-07-29T07:41:19.730Z,6.68
2022-07-29T07:43:47.851Z,7.90
2022-07-29T07:46:15.993Z,5.75
2022-07-29T07:48:44.265Z,11.52
2022-07-29T07:51:12.871Z,4.62
2022-07-29T07:53:40.705Z,5.65
2022-07-29T07:56:11.875Z,5.95
2022-07-29T07:58:40.726Z,6.72
2022-07-29T08:01:10.200Z,10.38
2022-07-29T08:03:39.195Z,7.57
2022-07-29T08:06:07.812Z,5.22
2022-07-29T08:08:35.738Z,5.70
2022-07-29T08:11:08.945Z,5.72
2022-07-29T08:13:39.387Z,7.28
2022-07-29T08:16:16.312Z,3.87
2022-07-29T08:18:46.001Z,5.72
2022-07-29T08:21:16.056Z,5.97
2022-07-29T08:23:58.011Z,7.33
2022-07-29T08:26:28.135Z,7.68
2022-07-29T08:28:56.242Z,7.10
2022-07-29T08:31:24.214Z,7.07
2022-07-29T08:33:52.494Z,6.60
2022-07-29T08:36:22.298Z,8.25
2022-07-29T08:38:50.818Z,5.50
2022-07-29T08:41:20.529Z,7.10
2022-07-29T08:43:50.193Z,5.43
2022-07-29T08:46:18.779Z,4.70
2022-07-29T08:48:47.477Z,6.05
2022-07-29T08:51:22.292Z,7.12
2022-07-29T08:53:52.043Z,3.95
2022-07-29T08:56:21.099Z,3.75
2022-07-29T08:58:51.765Z,4.53
2022-07-29T09:01:36.379Z,3.62
2022-07-29T09:04:07.428Z,4.93
2022-07-29T09:06:38.824Z,6.97
2022-07-29T09:09:08.680Z,3.40
2022-07-29T09:11:37.271Z,5.03
2022-07-29T09:14:05.154Z,5.03
2022-07-29T09:16:57.508Z,3.25
2022-07-29T09:19:36.023Z,2.85
2022-07-29T09:22:06.641Z,4.45
2022-07-29T09:24:46.615Z,6.07
2022-07-29T09:27:24.871Z,4.77
2022-07-29T09:30:11.973Z,2.90
2022-07-29T09:33:04.016Z,3.03
2022-07-29T09:35:32.664Z,2.62
2022-07-29T09:38:14.949Z,2.97
2022-07-29T09:40:56.802Z,1.62
2022-07-29T09:43:28.048Z,3.47
2022-07-29T09:45:56.659Z,2.22
2022-07-29T09:48:26.173Z,1.45
2022-07-29T09:50:55.168Z,3.42
2022-07-29T09:53:34.041Z,1.02
2022-07-29T09:56:02.442Z,4.28
2022-07-29T09:58:30.954Z,3.42
2022-07-29T10:00:58.867Z,2.75
2022-07-29T10:03:27.599Z,2.97
2022-07-29T10:06:10.550Z,3.60
2022-07-29T10:08:39.397Z,2.05
2022-07-29T10:11:11.549Z,2.55
2022-07-29T10:13:40.629Z,0.85
2022-07-29T10:16:09.574Z,2.12
2022-07-29T10:18:40.189Z,2.80
2022-07-29T10:21:08.628Z,1.58
2022-07-29T10:23:46.739Z,1.48
2022-07-29T10:26:17.005Z,2.30
2022-07-29T10:28:44.908Z,2.03
2022-07-29T10:31:24.487Z,2.85
2022-07-29T10:34:06.289Z,1.48
2022-07-29T10:36:45.995Z,2.92
2022-07-29T10:45:17.605Z,1.52
2022-07-29T10:47:46.938Z,1.48
2022-07-29T10:50:17.249Z,1.40
2022-07-29T10:52:51.151Z,1.08
2022-07-29T10:55:43.691Z,2.55
2022-07-29T10:58:16.041Z,2.62
2022-07-29T11:00:51.963Z,1.02
2022-07-29T11:03:52.143Z,1.77
2022-07-29T11:06:26.416Z,2.00
2022-07-29T11:09:34.915Z,1.40
2022-07-29T11:12:37.699Z,1.35
2022-07-29T11:15:09.796Z,1.52
2022-07-29T11:17:59.676Z,1.37
2022-07-29T11:20:46.005Z,1.10
2022-07-29T11:23:26.344Z,2.75
2022-07-29T11:26:22.998Z,0.65
2022-07-29T11:28:55.752Z,2.15
2022-07-29T11:31:43.382Z,1.27
2022-07-29T11:34:30.958Z,1.15
2022-07-29T11:37:10.812Z,1.37
2022-07-29T11:40:01.840Z,3.25
2022-07-29T11:42:32.977Z,0.50
2022-07-29T11:45:41.107Z,1.87
2022-07-29T11:48:05.692Z,2.03
2022-07-29T11:50:49.444Z,0.98
2022-07-29T11:53:17.585Z,1.77
2022-07-29T11:55:51.369Z,1.42
2022-07-29T11:58:25.053Z,1.30
2022-07-29T12:00:55.803Z,1.45
2022-07-29T12:03:33.516Z,0.65
2022-07-29T12:06:07.979Z,1.52
2022-07-29T12:08:43.981Z,1.73
2022-07-29T12:11:21.984Z,2.00
2022-07-29T12:13:54.622Z,2.17
2022-07-29T12:16:26.165Z,1.25
2022-07-29T12:19:02.931Z,3.10
2022-07-29T12:21:56.328Z,3.17
2022-07-29T12:24:26.752Z,1.58
2022-07-29T12:26:58.606Z,2.03
2022-07-29T12:29:33.989Z,5.22
2022-07-29T12:32:14.640Z,1.08
2022-07-29T12:34:48.121Z,1.12
2022-07-29T12:37:16.125Z,1.92
2022-07-29T12:39:44.102Z,2.20
2022-07-29T12:42:18.358Z,2.37
2022-07-29T12:44:48.905Z,1.42
2022-07-29T12:47:17.714Z,2.47
2022-07-29T12:49:46.520Z,2.25
2022-07-29T12:52:35.264Z,2.00
2022-07-29T12:55:03.985Z,2.80
2022-07-29T12:57:33.273Z,1.67
2022-07-29T13:00:06.158Z,1.62
2022-07-29T13:02:34.709Z,2.92
2022-07-29T13:05:07.600Z,1.37
2022-07-29T13:07:54.111Z,2.87
2022-07-29T13:10:24.264Z,1.77
2022-07-29T13:13:16.479Z,7.15
2022-07-29T13:15:48.616Z,7.25
2022-07-29T13:18:33.224Z,10.70
2022-07-29T13:21:15.357Z,11.07
2022-07-29T13:23:44.789Z,9.90
2022-07-29T13:26:13.260Z,10.50
2022-07-29T13:28:44.309Z,13.40
2022-07-29T13:31:12.797Z,15.20
2022-07-29T13:33:40.668Z,12.02
2022-07-29T13:36:08.666Z,13.10
2022-07-29T13:38:36.852Z,16.08
2022-07-29T13:41:05.162Z,12.98
2022-07-29T13:43:33.811Z,13.35
2022-07-29T13:46:02.064Z,15.23
2022-07-29T13:48:30.079Z,17.40
2022-07-29T13:50:58.398Z,15.52
2022-07-29T13:53:27.314Z,14.52
2022-07-29T13:55:56.198Z,17.52
2022-07-29T13:58:24.553Z,16.77
2022-07-29T14:00:52.848Z,18.30
2022-07-29T14:03:21.193Z,14.87
2022-07-29T14:05:49.329Z,14.30
2022-07-29T14:08:17.182Z,14.60
2022-07-29T14:10:45.536Z,15.25
2022-07-29T14:13:25.200Z,15.68
2022-07-29T14:15:54.913Z,13.95
2022-07-29T14:18:22.801Z,13.73
2022-07-29T14:20:51.885Z,16.48
2022-07-29T14:23:20.519Z,15.30
2022-07-29T14:25:49.439Z,12.65
2022-07-29T14:28:18.019Z,13.30
2022-07-29T14:30:46.622Z,13.00
2022-07-29T14:33:14.737Z,15.52
2022-07-29T14:35:42.686Z,12.52
2022-07-29T14:38:10.971Z,15.27
2022-07-29T14:40:39.186Z,14.07
2022-07-29T14:43:07.440Z,16.67
2022-07-29T14:45:35.897Z,15.30
2022-07-29T14:48:03.909Z,12.60
2022-07-29T14:50:32.375Z,10.38
2022-07-29T14:53:04.038Z,9.85
2022-07-29T14:55:32.054Z,18.35
2022-07-29T14:58:08.715Z,10.35
2022-07-29T15:00:39.018Z,14.02
2022-07-29T15:03:11.329Z,14.05
2022-07-29T15:05:40.036Z,10.52
2022-07-29T15:08:09.326Z,13.32
2022-07-29T15:10:37.472Z,16.12
2022-07-29T15:13:05.374Z,12.52
2022-07-29T15:15:33.681Z,13.30
2022-07-29T15:18:01.553Z,13.90
2022-07-29T15:20:29.546Z,19.42
2022-07-29T15:22:57.952Z,14.25
2022-07-29T15:25:28.302Z,13.05
2022-07-29T15:30:33.517Z,10.63
2022-07-29T15:33:04.363Z,10.27
2022-07-29T15:35:33.293Z,12.15
2022-07-29T15:38:08.191Z,15.02
2022-07-29T15:40:39.017Z,11.40
2022-07-29T15:45:40.393Z,11.00
2022-07-29T15:48:10.280Z,11.95
2022-07-29T15:50:43.154Z,8.63
2022-07-29T15:53:15.644Z,10.30
2022-07-29T15:55:44.437Z,9.50
2022-07-29T15:58:12.508Z,11.50
2022-07-29T16:00:40.763Z,9.57
2022-07-29T16:03:09.064Z,13.50
2022-07-29T16:05:36.979Z,15.57
2022-07-29T16:08:05.660Z,13.20
2022-07-29T16:10:34.137Z,10.77
2022-07-29T16:13:01.997Z,14.15
2022-07-29T16:15:29.821Z,12.35
2022-07-29T16:17:58.139Z,12.68
2022-07-29T16:20:25.998Z,11.98
2022-07-29T16:22:54.404Z,12.05
2022-07-29T16:25:38.324Z,13.57
2022-07-29T16:28:10.562Z,12.15
2022-07-29T16:30:38.856Z,11.77
2022-07-29T16:33:08.464Z,14.30
2022-07-29T16:35:40.197Z,13.98
2022-07-29T16:38:08.483Z,14.52
2022-07-29T16:40:36.361Z,9.52
2022-07-29T16:43:04.174Z,10.07
2022-07-29T16:45:43.952Z,12.10
2022-07-29T16:48:15.460Z,13.60
2022-07-29T16:50:46.556Z,12.93
2022-07-29T16:53:14.878Z,12.80
2022-07-29T16:55:43.058Z,12.05
2022-07-29T16:58:12.435Z,11.00
2022-07-29T17:00:40.434Z,13.45
2022-07-29T17:03:08.345Z,12.95
2022-07-29T17:05:50.653Z,13.80
2022-07-29T17:08:22.820Z,9.98
2022-07-29T17:10:51.421Z,13.32
2022-07-29T17:13:19.337Z,9.85
2022-07-29T17:15:47.339Z,13.23
2022-07-29T17:18:15.569Z,12.40
2022-07-29T17:20:43.476Z,12.80
2022-07-29T17:23:11.338Z,10.77
2022-07-29T17:25:39.792Z,9.88
2022-07-29T17:28:07.563Z,11.73
2022-07-29T17:30:35.489Z,12.73
2022-07-29T17:33:03.805Z,12.57
2022-07-29T17:35:49.980Z,13.18
2022-07-29T17:38:18.166Z,8.68
2022-07-29T17:40:45.921Z,10.57
2022-07-29T17:43:13.807Z,14.05
2022-07-29T17:45:50.266Z,10.18
2022-07-29T17:48:19.883Z,11.77
2022-07-29T17:50:48.972Z,16.87
2022-07-29T17:53:17.073Z,11.27
2022-07-29T17:55:46.328Z,12.40
2022-07-29T17:58:15.468Z,15.25
2022-07-29T18:00:43.884Z,11.82
2022-07-29T18:03:12.625Z,11.55
2022-07-29T18:05:40.452Z,11.65
2022-07-29T18:08:08.694Z,16.52
2022-07-29T18:10:37.652Z,18.00
2022-07-29T18:13:05.581Z,11.88
2022-07-29T18:15:33.775Z,14.20
2022-07-29T18:18:02.235Z,9.98
2022-07-29T18:20:30.058Z,14.10
2022-07-29T18:22:57.942Z,12.70
2022-07-29T18:25:27.027Z,10.95
2022-07-29T18:27:58.501Z,9.98
2022-07-29T18:30:29.891Z,16.45
2022-07-29T18:33:19.624Z,14.15
2022-07-29T18:35:47.478Z,13.45
2022-07-29T18:38:15.423Z,12.30
2022-07-29T18:40:43.594Z,16.08
2022-07-29T18:43:12.377Z,12.80
2022-07-29T18:45:40.446Z,16.90
2022-07-29T18:48:12.831Z,15.23
2022-07-29T18:50:42.614Z,12.50
2022-07-29T18:53:10.453Z,12.23
2022-07-29T18:55:38.339Z,13.07
2022-07-29T18:58:06.836Z,13.05
2022-07-29T19:00:35.573Z,13.88
2022-07-29T19:03:03.847Z,14.55
2022-07-29T19:05:32.649Z,11.98
2022-07-29T19:08:00.634Z,12.20
2022-07-29T19:10:28.583Z,11.45
2022-07-29T19:12:58.136Z,14.50
2022-07-29T19:15:26.337Z,12.00
2022-07-29T19:18:00.551Z,17.52
2022-07-29T19:20:29.823Z,12.57
2022-07-29T19:22:57.766Z,16.98
2022-07-29T19:25:25.877Z,18.48
2022-07-29T19:27:54.182Z,15.13
2022-07-29T19:30:22.418Z,14.87
2022-07-29T19:32:50.441Z,14.75
2022-07-29T19:35:33.551Z,14.13
2022-07-29T19:38:02.681Z,11.32
2022-07-29T19:40:30.904Z,12.13
2022-07-29T19:42:59.480Z,13.00
2022-07-29T19:45:27.544Z,16.60
2022-07-29T19:48:01.101Z,14.18
2022-07-29T19:50:30.058Z,11.02
2022-07-29T19:52:58.879Z,12.93
2022-07-29T19:55:27.504Z,12.40
2022-07-29T19:57:56.036Z,10.93
2022-07-29T20:00:25.330Z,13.68
2022-07-29T20:02:54.007Z,13.50
2022-07-29T20:05:22.183Z,12.30
2022-07-29T20:07:56.484Z,13.52
2022-07-29T20:10:24.571Z,12.63
2022-07-29T20:12:53.829Z,11.00
2022-07-29T20:15:24.121Z,15.85
2022-07-29T20:17:56.735Z,11.68
2022-07-29T20:20:26.248Z,11.60
2022-07-29T20:22:54.839Z,15.63
2022-07-29T20:25:23.490Z,13.85
2022-07-29T20:27:55.204Z,11.07
2022-07-29T20:30:23.592Z,13.40
2022-07-29T20:32:51.864Z,14.98
2022-07-29T20:35:21.903Z,14.68
2022-07-29T20:37:55.888Z,11.68
2022-07-29T20:40:35.396Z,12.00
2022-07-29T20:43:03.186Z,13.95
2022-07-29T20:45:31.592Z,13.98
2022-07-29T20:47:59.515Z,14.05
2022-07-29T20:50:27.476Z,14.98
2022-07-29T20:52:55.757Z,13.05
2022-07-29T20:55:23.575Z,13.88
2022-07-29T20:57:51.409Z,16.35
2022-07-29T21:00:19.798Z,11.10
2022-07-29T21:02:48.061Z,10.73
2022-07-29T21:05:16.270Z,11.30
2022-07-29T21:07:44.687Z,13.73
2022-07-29T21:10:14.409Z,14.00
2022-07-29T21:12:42.287Z,13.32
2022-07-29T21:15:13.754Z,12.73
2022-07-29T21:17:46.745Z,12.02
2022-07-29T21:20:19.806Z,12.37
2022-07-29T21:22:47.675Z,13.80
2022-07-29T21:25:15.995Z,11.82
2022-07-29T21:28:02.476Z,18.70
2022-07-29T21:30:30.640Z,14.73
2022-07-29T21:32:58.529Z,15.50
2022-07-29T21:35:58.910Z,14.07
2022-07-29T21:38:16.592Z,12.07
2022-07-29T21:40:50.244Z,12.40
2022-07-29T21:43:19.352Z,13.07
2022-07-29T21:45:53.442Z,20.20
2022-07-29T21:48:23.239Z,19.20
2022-07-29T21:50:51.715Z,13.25
2022-07-29T21:53:22.903Z,15.25
2022-07-29T21:55:52.062Z,9.93
2022-07-29T22:00:50.732Z,13.07
2022-07-29T22:03:19.117Z,13.18
2022-07-29T22:05:47.125Z,16.92
2022-07-29T22:08:15.430Z,15.30
2022-07-29T22:10:43.864Z,11.50
2022-07-29T22:13:11.704Z,11.20
2022-07-29T22:15:41.191Z,16.58
2022-07-29T22:18:12.423Z,15.13
2022-07-29T22:20:47.290Z,12.95
2022-07-29T22:23:15.549Z,14.77
2022-07-29T22:25:43.462Z,16.52
2022-07-29T22:28:11.507Z,14.27
2022-07-29T22:30:39.760Z,13.38
2022-07-29T22:33:07.680Z,13.65
2022-07-29T22:35:35.615Z,12.65
2022-07-29T22:38:03.945Z,14.52
2022-07-29T22:40:32.768Z,11.45
2022-07-29T22:43:02.102Z,13.50
2022-07-29T22:45:30.477Z,13.05
2022-07-29T22:47:59.124Z,14.07
2022-07-29T22:50:27.371Z,12.52
2022-07-29T22:52:55.583Z,11.60
2022-07-29T22:55:23.574Z,12.95
2022-07-29T22:57:51.367Z,16.73
2022-07-29T23:00:19.621Z,18.25
2022-07-29T23:02:47.735Z,20.05
2022-07-29T23:05:16.157Z,18.17
2022-07-29T23:07:44.425Z,19.00
2022-07-29T23:10:12.270Z,18.48
2022-07-29T23:12:40.111Z,19.55
2022-07-29T23:15:08.531Z,12.68
2022-07-29T23:17:36.908Z,13.32
2022-07-29T23:20:09.939Z,14.73
2022-07-29T23:22:38.258Z,14.73
2022-07-29T23:25:06.681Z,12.43
2022-07-29T23:27:34.590Z,17.17
2022-07-29T23:30:03.276Z,14.70
2022-07-29T23:32:31.110Z,12.77
2022-07-29T23:34:58.980Z,12.43
2022-07-29T23:37:27.321Z,13.15
2022-07-29T23:39:55.077Z,14.60
2022-07-29T23:42:23.148Z,16.27
2022-07-29T23:44:51.563Z,15.93
2022-07-29T23:47:19.343Z,10.70
2022-07-29T23:49:50.131Z,12.77
2022-07-29T23:52:18.777Z,16.12
2022-07-29T23:54:46.709Z,15.60
2022-07-29T23:57:14.954Z,15.70
2022-07-29T23:59:43.221Z,13.90
